Uptown, Indiana
Current Conditions -  °F | °C
As of 8:37 PM on Monday 24 Nov 2014 (Local Time) from KEYE Reporting Station
Overcast Overcast  
Wind Chill: 29°   Ceiling: 3600
Heat Index: 37°   Visibility: 10mi
Dew Point: 27°   Wind: 12mph
Humidity: 67%   Direction: 240°WSW
Pressure: 29.84"   Gusts: 24mph
Location:  39.8275°N, 86.1353°W
Report Text: KEYE 250137Z AUTO 24010G21KT 210V270 10SM SCT030 BKN036 OVC070 03/M03 A2984 RMK AO2 T00281028
Loading
Personal Weather Stations






























Interactive Weather Map New forecast layout! Learn more

10-Day Weather Forecast

Advertisements
Track Severe Weather on mobile